Latest Coastal Weather Observations for Kingfish B

IDV60701

Issued at 2:12 am EDT Tuesday 24 October 2017 (issued every 10 minutes, with the page automatically refreshed every 10 minutes)

About coastal observations | Map of coastal stations | Coastal observations for VIC | Marine services | Other Formats
Station Details ID: 400139 Name: KINGFISH B (PLATFORM) Lat: -38.60 Lon: 148.19 Height: 31.4 m
Data from the previous 72 hours. | See also: Recent months for locations in Victoria
Date/Time
EDT
Temp
°C
Wind Pressure Rain since
9am
mm
Weather Cloud Vis
km
Sea
Height
m
Swell
Dir  Spd
kts
Gust
kts
hPa Trend Height
m
Period
s
Dir
24/02:00am 15.7 NW 10 12 1016.6 - - - - - - - - -
24/01:50am 15.7 NW 10 12 1016.7 - - - - - - - - -
24/01:40am 15.6 NW 10 12 1016.9 - - - - - - - - -
24/01:30am 15.6 NW 9 11 1017.0 - - - - - - - - -
24/01:20am 15.5 NW 10 11 1017.2 - - - - - - - - -
24/01:10am 15.4 NW 9 11 1017.3 - - - - - - - - -
24/01:00am 15.1 NW 10 12 1017.4 - - - - - - - - -
24/12:50am 15.3 NW 11 12 1017.4 - - - - - - - - -
24/12:40am 15.5 NW 10 12 1017.6 - - - - - - - - -
24/12:30am 15.6 NW 10 11 1017.7 - - - - - - - - -
24/12:20am 15.6 NW 9 11 1017.7 - - - - - - - - -
24/12:10am 15.7 NW 8 10 1017.8 - - - - - - - - -
24/12:00am 15.6 NW 8 9 1017.8 - - - - - - - - -
 
Date/Time
EDT
Temp
°C
Wind Pressure Rain since
9am
mm
Weather Cloud Vis
km
Sea
Height
m
Swell
Dir  Spd
kts
Gust
kts
hPa Trend Height
m
Period
s
Dir
23/11:50pm 15.6 NW 7 9 1017.9 - - - - - - - - -
23/11:40pm 15.5 NW 7 8 1017.9 - - - - - - - - -
23/11:30pm 15.5 NW 7 8 1017.9 - - - - - - - - -
23/11:20pm 15.5 NW 6 7 1018.0 - - - - - - - - -
23/11:10pm 15.6 NW 5 7 1018.1 - - - - - - - - -
23/11:00pm 15.7 NW 5 6 1018.1 - - - - - - - - -
23/10:50pm 15.5 NW 5 7 1018.0 - - - - - - - - -
23/10:40pm 15.5 NW 5 6 1018.0 - - - - - - - - -
23/10:30pm 15.5 NW 4 5 1017.9 - - - - - - - - -
23/10:20pm 15.4 WNW 4 5 1017.9 - - - - - - - - -
23/10:10pm 15.2 NW 5 5 1017.9 - - - - - - - - -
23/10:00pm 15.1 NW 4 5 1017.9 - - - - - - - - -
23/09:50pm 14.0 WNW 4 5 1018.0 - - - - - - - - -
23/09:40pm 13.7 WSW 4 6 1017.9 - - - - - - - - -
23/09:30pm 13.7 WSW 5 6 1017.9 - - - - - - - - -
23/09:20pm 13.7 WSW 5 6 1017.9 - - - - - - - - -
23/09:10pm 13.8 WSW 6 8 1017.8 - - - - - - - - -
23/09:00pm 13.8 SW 7 9 1017.9 - - - - - - - - -
23/08:50pm 13.8 SW 7 9 1017.8 - - - - - - - - -
23/08:40pm 13.8 SW 7 11 1017.6 - - - - - - - - -
23/08:30pm 14.0 SW 7 9 1017.7 - - - - - - - - -
23/08:20pm 13.9 SW 9 11 1017.6 - - - - - - - - -
23/08:10pm 14.0 SW 10 12 1017.4 - - - - - - - - -
23/08:00pm 14.1 SW 10 12 1017.3 - - - - - - - - -
23/07:50pm 14.2 SW 11 13 1017.2 - - - - - - - - -
23/07:40pm 14.2 SW 12 14 1017.3 - - - - - - - - -
23/07:30pm 14.1 SW 12 16 1017.2 - - - - - - - - -
23/07:20pm 14.0 SW 14 16 1017.2 - - - - - - - - -
23/07:10pm 13.9 SW 15 17 1017.0 - - - - - - - - -
23/07:00pm 13.8 SSW 13 16 1016.8 - - - - - - - - -
23/06:50pm 13.9 SSW 15 18 1016.9 - - - - - - - - -
23/06:40pm 14.0 SSW 16 18 1016.8 - - - - - - - - -
23/06:30pm 13.9 SSW 15 17 1016.8 - - - - - - - - -
23/06:20pm 13.9 SSW 14 17 1016.7 - - - - - - - - -
23/06:10pm 13.9 SSW 14 18 1016.7 - - - - - - - - -
23/06:00pm 13.9 SSW 14 18 1016.6 - - - - - - - - -
23/05:50pm 13.8 SSW 16 18 1016.6 - - - - - - - - -
23/05:40pm 13.8 SSW 15 17 1016.5 - - - - - - - - -
23/05:30pm 13.7 SSW 13 16 1016.3 - - - - - - - - -
23/05:20pm 13.6 SSW 12 14 1016.1 - - - - - - - - -
23/05:10pm 13.6 SSW 13 15 1016.1 - - - - - - - - -
23/05:00pm 13.6 SSW 13 16 1016.2 - - - - - - - - -
23/04:50pm 13.6 SSW 13 16 1016.1 - - - - - - - - -
23/04:40pm 13.7 SSW 14 17 1016.2 - - - - - - - - -
23/04:30pm 13.7 SSW 13 16 1016.2 - - - - - - - - -
23/04:20pm 13.8 SSW 12 13 1016.3 - - - - - - - - -
23/04:10pm 13.9 SSW 10 12 1016.3 - - - - - - - - -
23/04:00pm 13.9 SSW 11 13 1016.3 - - - - - - - - -
23/03:50pm 13.9 SSW 11 13 1016.4 - - - - - - - - -
23/03:40pm 14.0 SSW 10 13 1016.4 - - - - - - - - -
23/03:30pm 14.2 SW 9 10 1016.4 - - - - - - - - -
23/03:20pm 14.4 SW 9 11 1016.5 - - - - - - - - -
23/03:10pm 14.3 SW 9 11 1016.5 - - - - - - - - -
23/03:00pm 14.1 SW 8 10 1016.5 - - - - - - - - -
23/02:50pm 13.9 SW 9 11 1016.5 - - - - - - - - -
23/02:40pm 13.9 SSW 10 12 1016.7 - - - - - - - - -
23/02:30pm 14.1 SW 10 12 1016.8 - - - - - - - - -
23/02:20pm 14.3 SW 10 11 1016.8 - - - - - - - - -
23/02:00pm 15.2 SW 13 17 1016.9 - - - - - - - - -
23/01:50pm 16.0 SW 15 18 1016.9 - - - - - - - - -
23/01:40pm 16.1 WSW 16 19 1016.7 - - - - - - - - -
23/01:30pm 16.4 WSW 15 17 1016.7 - - - - - - - - -
23/01:20pm 16.7 WSW 13 16 1016.8 - - - - - - - - -
23/01:10pm 16.5 WSW 13 15 1017.0 - - - - - - - - -
23/01:00pm 16.6 WSW 14 18 1017.0 - - - - - - - - -
23/12:50pm 16.5 WSW 14 17 1017.1 - - - - - - - - -
23/12:40pm 16.3 W 14 16 1017.1 - - - - - - - - -
23/12:30pm 16.2 W 15 18 1017.2 - - - - - - - - -
23/12:20pm 16.0 W 16 18 1017.3 - - - - - - - - -
23/12:10pm 15.9 W 15 18 1017.3 - - - - - - - - -
23/12:00pm 15.8 W 15 18 1017.4 - - - - - - - - -
23/11:50am 15.7 W 17 21 1017.3 - - - - - - - - -
23/11:40am 15.9 W 16 21 1017.4 - - - - - - - - -
23/11:30am 15.9 WSW 15 18 1017.4 - - - - - - - - -
23/11:20am 15.8 WSW 15 18 1017.3 - - - - - - - - -
23/11:10am 15.7 W 16 19 1017.3 - - - - - - - - -
23/11:00am 15.8 W 17 20 1017.3 - - - - - - - - -
23/10:50am 15.6 W 17 19 1017.4 - - - - - - - - -
23/10:40am 15.7 W 17 21 1017.3 - - - - - - - - -
23/10:30am 15.7 WSW 16 20 1017.3 - - - - - - - - -
23/10:20am 15.7 W 17 19 1017.3 - - - - - - - - -
23/10:10am 15.7 WSW 17 21 1017.4 - - - - - - - - -
23/10:00am 15.5 W 16 20 1017.3 - - - - - - - - -
23/09:50am 15.3 W 11 15 1017.3 - - - - - - - - -
23/09:40am 14.7 WSW 12 15 1017.3 - - - - - - - - -
23/09:30am 14.3 WSW 14 17 1017.2 - - - - - - - - -
23/09:20am 14.2 WSW 14 18 1017.2 - - - - - - - - -
23/09:10am 14.1 W 14 17 1017.1 - - - - - - - - -
23/09:00am 14.2 W 16 18 1017.1 - - - - - - - - -
23/08:50am 14.2 WSW 15 18 1017.1 - - - - - - - - -
23/08:40am 14.2 WSW 17 19 1017.0 - - - - - - - - -
23/08:30am 14.2 WSW 19 21 1017.0 - - - - - - - - -
23/08:20am 14.1 WSW 18 21 1016.9 - - - - - - - - -
23/08:10am 14.2 WSW 16 22 1017.0 - - - - - - - - -
23/08:00am 14.1 W 16 19 1016.9 - - - - - - - - -
23/07:50am 14.0 WSW 16 18 1016.7 - - - - - - - - -
23/07:40am 13.9 WSW 16 19 1016.7 - - - - - - - - -
23/07:30am 13.9 WSW 18 20 1016.5 - - - - - - - - -
23/07:20am 13.9 WSW 18 20 1016.5 - - - - - - - - -
23/07:10am 14.0 WSW 17 19 1016.5 - - - - - - - - -
23/07:00am 14.0 WSW 16 19 1016.4 - - - - - - - - -
23/06:50am 13.9 WSW 16 19 1016.3 - - - - - - - - -
23/06:40am 13.6 WSW 16 19 1016.3 - - - - - - - - -
23/06:30am 13.4 WSW 14 17 1016.3 - - - - - - - - -
23/06:20am 13.4 WSW 14 17 1016.2 - - - - - - - - -
23/06:10am 13.6 WSW 17 21 1015.9 - - - - - - - - -
23/06:00am 13.8 WSW 17 20 1015.8 - - - - - - - - -
23/05:50am 13.8 WSW 15 17 1015.9 - - - - - - - - -
23/05:40am 13.7 W 15 18 1015.8 - - - - - - - - -
23/05:30am 13.5 W 16 19 1015.7 - - - - - - - - -
23/05:20am 13.5 WSW 16 18 1015.7 - - - - - - - - -
23/05:10am 13.4 WSW 15 18 1015.7 - - - - - - - - -
23/05:00am 13.5 WSW 16 18 1015.6 - - - - - - - - -
23/04:50am 13.4 WSW 16 21 1015.6 - - - - - - - - -
23/04:40am 13.5 W 17 21 1015.5 - - - - - - - - -
23/04:30am 13.6 W 17 20 1015.5 - - - - - - - - -
23/04:20am 13.7 W 19 21 1015.5 - - - - - - - - -
23/04:10am 13.8 W 18 20 1015.5 - - - - - - - - -
23/04:00am 13.8 WSW 16 19 1015.6 - - - - - - - - -
23/03:50am 13.8 WSW 16 19 1015.6 - - - - - - - - -
23/03:40am 13.7 WSW 16 21 1015.6 - - - - - - - - -
23/03:30am 13.6 WSW 15 18 1015.6 - - - - - - - - -
23/03:20am 13.4 WSW 18 20 1015.6 - - - - - - - - -
23/03:10am 13.5 WSW 19 23 1015.6 - - - - - - - - -
23/03:00am 13.5 WSW 17 20 1015.7 - - - - - - - - -
23/02:50am 13.6 WSW 18 20 1015.7 - - - - - - - - -
23/02:40am 13.6 WSW 17 21 1015.8 - - - - - - - - -
23/02:30am 13.6 WSW 18 21 1015.8 - - - - - - - - -
23/02:20am 13.5 WSW 15 19 1015.9 - - - - - - - - -
23/02:10am 13.5 WSW 17 20 1015.8 - - - - - - - - -
23/02:00am 13.6 WSW 17 20 1015.9 - - - - - - - - -
23/01:50am 13.6 WSW 17 20 1016.1 - - - - - - - - -
23/01:40am 13.6 WSW 18 21 1016.1 - - - - - - - - -
23/01:30am 13.6 WSW 18 22 1016.1 - - - - - - - - -
23/01:20am 13.7 WSW 19 22 1016.2 - - - - - - - - -
23/01:10am 13.7 WSW 20 25 1016.2 - - - - - - - - -
23/01:00am 13.7 WSW 18 21 1016.3 - - - - - - - - -
23/12:50am 13.8 WSW 18 23 1016.4 - - - - - - - - -
23/12:40am 13.8 WSW 21 24 1016.3 - - - - - - - - -
23/12:30am 13.7 WSW 22 25 1016.3 - - - - - - - - -
23/12:20am 13.8 WSW 21 25 1016.3 - - - - - - - - -
23/12:10am 13.8 WSW 22 26 1016.2 - - - - - - - - -
23/12:00am 13.8 WSW 23 26 1016.2 - - - - - - - - -
 
Date/Time
EDT
Temp
°C
Wind Pressure Rain since
9am
mm
Weather Cloud Vis
km
Sea
Height
m
Swell
Dir  Spd
kts
Gust
kts
hPa Trend Height
m
Period
s
Dir
22/11:50pm 13.9 WSW 20 25 1016.4 - - - - - - - - -
22/11:40pm 14.0 SW 20 24 1016.5 - - - - - - - - -
22/11:30pm 14.0 WSW 20 23 1016.4 - - - - - - - - -
22/11:20pm 14.2 WSW 19 22 1016.4 - - - - - - - - -
22/11:10pm 13.9 WSW 20 25 1016.4 - - - - - - - - -
22/11:00pm 14.0 WSW 20 24 1016.5 - - - - - - - - -
22/10:50pm 13.9 WSW 20 25 1016.4 - - - - - - - - -
22/10:40pm 13.9 SW 24 28 1016.6 - - - - - - - - -
22/10:30pm 13.9 WSW 20 25 1016.4 - - - - - - - - -
22/10:20pm 14.0 WSW 22 27 1016.4 - - - - - - - - -
22/10:10pm 14.0 SW 24 28 1016.7 - - - - - - - - -
22/10:00pm 14.0 SW 22 26 1016.5 - - - - - - - - -
22/09:50pm 14.0 SW 23 28 1016.5 - - - - - - - - -
22/09:40pm 14.0 SW 22 25 1016.4 - - - - - - - - -
22/09:30pm 14.0 SW 20 23 1016.4 - - - - - - - - -
22/09:20pm 14.0 SW 20 24 1016.4 - - - - - - - - -
22/09:10pm 14.0 SW 20 24 1016.3 - - - - - - - - -
22/09:00pm 13.9 SW 20 24 1016.1 - - - - - - - - -
22/08:50pm 13.9 SW 22 25 1016.0 - - - - - - - - -
22/08:40pm 14.0 SW 22 25 1016.2 - - - - - - - - -
22/08:30pm 13.9 SW 23 27 1016.0 - - - - - - - - -
22/08:20pm 13.9 SW 21 24 1015.9 - - - - - - - - -
22/08:10pm 13.9 SW 21 24 1015.7 - - - - - - - - -
22/08:00pm 13.9 SW 22 25 1015.7 - - - - - - - - -
22/07:50pm 14.0 SW 22 25 1015.6 - - - - - - - - -
22/07:40pm 14.1 SW 22 27 1015.4 - - - - - - - - -
22/07:30pm 14.2 SW 22 26 1015.2 - - - - - - - - -
22/07:20pm 14.3 SW 21 26 1015.2 - - - - - - - - -
22/07:10pm 14.4 SW 22 26 1015.2 - - - - - - - - -
22/06:50pm 14.3 SW 21 25 1015.0 - - - - - - - - -
22/06:40pm 14.4 SW 21 27 1015.0 - - - - - - - - -
22/06:30pm 14.4 SW 20 24 1014.9 - - - - - - - - -
22/06:20pm 14.5 SW 22 25 1014.9 - - - - - - - - -
22/06:10pm 14.4 SW 21 24 1014.7 - - - - - - - - -
22/06:00pm 14.4 SW 23 26 1014.6 - - - - - - - - -
22/05:50pm 14.5 SW 22 26 1014.4 - - - - - - - - -
22/05:40pm 14.6 SW 22 25 1014.5 - - - - - - - - -
22/05:30pm 14.5 SW 21 24 1014.5 - - - - - - - - -
22/05:20pm 14.5 SW 23 25 1014.5 - - - - - - - - -
22/05:10pm 14.6 SW 22 26 1014.5 - - - - - - - - -
22/05:00pm 14.6 SW 21 24 1014.4 - - - - - - - - -
22/04:50pm 14.6 SW 21 24 1014.3 - - - - - - - - -
22/04:40pm 14.5 SW 22 26 1014.1 - - - - - - - - -
22/04:30pm 14.6 SW 23 27 1014.0 - - - - - - - - -
22/04:20pm 14.6 SW 24 27 1014.0 - - - - - - - - -
22/04:10pm 14.7 SW 21 25 1014.2 - - - - - - - - -
22/04:00pm 14.8 SW 22 25 1014.3 - - - - - - - - -
22/03:50pm 14.8 SW 23 26 1014.3 - - - - - - - - -
22/03:40pm 14.7 SW 22 26 1014.2 - - - - - - - - -
22/03:30pm 14.7 SW 21 25 1014.2 - - - - - - - - -
22/03:20pm 14.8 SW 21 25 1014.2 - - - - - - - - -
22/03:10pm 14.7 SW 22 26 1014.2 - - - - - - - - -
22/03:00pm 14.7 SW 22 25 1014.1 - - - - - - - - -
22/02:50pm 14.8 SW 22 25 1014.3 - - - - - - - - -
22/02:40pm 14.7 WSW 22 25 1014.1 - - - - - - - - -
22/02:30pm 14.9 WSW 21 25 1014.2 - - - - - - - - -
22/02:20pm 15.1 WSW 21 25 1014.1 - - - - - - - - -
22/02:10pm 15.1 WSW 21 24 1014.2 - - - - - - - - -
22/02:00pm 15.3 WSW 20 24 1014.1 - - - - - - - - -
22/01:50pm 15.3 WSW 20 24 1014.2 - - - - - - - - -
22/01:40pm 15.4 WSW 19 23 1014.3 - - - - - - - - -
22/01:30pm 15.4 WSW 20 23 1014.2 - - - - - - - - -
22/01:20pm 15.5 WSW 20 23 1014.2 - - - - - - - - -
22/01:10pm 15.5 WSW 21 26 1014.4 - - - - - - - - -
22/01:00pm 15.8 WSW 21 25 1014.5 - - - - - - - - -
22/12:50pm 16.1 WSW 21 23 1014.5 - - - - - - - - -
22/12:40pm 16.1 WSW 19 23 1014.6 - - - - - - - - -
22/12:30pm 16.2 WSW 19 23 1014.7 - - - - - - - - -
22/12:20pm 16.3 WSW 21 26 1014.8 - - - - - - - - -
22/12:10pm 16.4 WSW 19 23 1014.8 - - - - - - - - -
22/12:00pm 16.3 WSW 21 23 1014.7 - - - - - - - - -
22/11:50am 16.3 WSW 21 25 1014.8 - - - - - - - - -
22/11:40am 16.2 WSW 22 25 1014.8 - - - - - - - - -
22/11:30am 16.3 WSW 19 24 1014.9 - - - - - - - - -
22/11:20am 16.3 WSW 20 25 1014.9 - - - - - - - - -
22/11:10am 16.2 WSW 21 25 1015.0 - - - - - - - - -
22/11:00am 16.2 WSW 22 25 1014.9 - - - - - - - - -
22/10:50am 16.0 WSW 20 23 1014.8 - - - - - - - - -
22/10:40am 16.1 WSW 21 26 1014.7 - - - - - - - - -
22/10:30am 16.2 WSW 21 25 1014.9 - - - - - - - - -
22/10:20am 16.4 WSW 21 25 1015.0 - - - - - - - - -
22/10:10am 16.4 WSW 20 24 1015.0 - - - - - - - - -
22/10:00am 16.2 WSW 20 24 1015.0 - - - - - - - - -
22/09:50am 15.7 WSW 22 25 1015.0 - - - - - - - - -
22/09:40am 14.9 WSW 20 23 1015.0 - - - - - - - - -
22/09:30am 14.0 WSW 22 26 1015.0 - - - - - - - - -
22/09:20am 13.7 WSW 22 26 1015.0 - - - - - - - - -
22/09:10am 13.6 WSW 21 25 1014.8 - - - - - - - - -
22/09:00am 13.7 WSW 19 23 1014.7 - - - - - - - - -
22/08:50am 13.6 WSW 20 24 1014.6 - - - - - - - - -
22/08:40am 13.6 WSW 21 25 1014.7 - - - - - - - - -
22/08:30am 13.6 WSW 21 25 1014.5 - - - - - - - - -
22/08:20am 13.5 WSW 23 27 1014.4 - - - - - - - - -
22/08:10am 13.3 WSW 19 24 1014.6 - - - - - - - - -
22/08:00am 13.0 WSW 22 24 1014.4 - - - - - - - - -
22/07:50am 13.3 WSW 23 29 1014.2 - - - - - - - - -
22/07:40am 13.1 WSW 21 24 1014.2 - - - - - - - - -
22/07:30am 13.1 WSW 20 24 1014.2 - - - - - - - - -
22/07:20am 13.0 WSW 23 27 1014.1 - - - - - - - - -
22/07:10am 13.1 WSW 25 30 1014.0 - - - - - - - - -
22/07:00am 13.2 WSW 21 24 1014.2 - - - - - - - - -
22/06:50am 13.1 WSW 22 27 1014.2 - - - - - - - - -
22/06:40am 12.9 WSW 22 27 1014.1 - - - - - - - - -
22/06:30am 12.9 WSW 22 26 1014.0 - - - - - - - - -
22/06:20am 13.0 WSW 23 28 1014.1 - - - - - - - - -
22/06:10am 13.0 WSW 24 27 1013.9 - - - - - - - - -
22/06:00am 13.0 WSW 22 27 1014.0 - - - - - - - - -
22/05:50am 13.0 WSW 22 26 1014.0 - - - - - - - - -
22/05:40am 12.8 WSW 24 28 1013.8 - - - - - - - - -
22/05:30am 12.7 WSW 24 27 1013.9 - - - - - - - - -
22/05:20am 12.8 WSW 24 27 1014.0 - - - - - - - - -
22/05:10am 12.7 WSW 25 29 1013.9 - - - - - - - - -
22/05:00am 12.5 WSW 23 28 1014.0 - - - - - - - - -
22/04:50am 12.5 WSW 24 31 1014.1 - - - - - - - - -
22/04:40am 12.8 WSW 26 34 1014.1 - - - - - - - - -
22/04:30am 12.9 WSW 26 31 1014.1 - - - - - - - - -
22/04:20am 12.8 WSW 24 27 1014.1 - - - - - - - - -
22/04:10am 12.9 WSW 23 29 1014.2 - - - - - - - - -
22/04:00am 12.8 WSW 22 26 1014.2 - - - - - - - - -
22/03:50am 12.7 WSW 24 28 1014.2 - - - - - - - - -
22/03:40am 12.7 WSW 24 28 1014.3 - - - - - - - - -
22/03:30am 12.9 WSW 25 31 1014.4 - - - - - - - - -
22/03:20am 12.9 WSW 25 28 1014.5 - - - - - - - - -
22/03:10am 12.9 WSW 26 30 1014.6 - - - - - - - - -
22/03:00am 13.1 WSW 27 31 1014.7 - - - - - - - - -
22/02:50am 13.2 WSW 26 34 1014.8 - - - - - - - - -
22/02:40am 13.2 WSW 25 30 1014.9 - - - - - - - - -
22/02:30am 13.2 WSW 25 30 1015.1 - - - - - - - - -
22/02:20am 13.1 WSW 25 30 1015.3 - - - - - - - - -
22/02:10am 13.1 WSW 26 30 1015.4 - - - - - - - - -
22/02:00am 13.0 WSW 27 32 1015.5 - - - - - - - - -
22/01:50am 13.0 WSW 28 33 1015.5 - - - - - - - - -
22/01:40am 12.9 WSW 26 31 1015.6 - - - - - - - - -
22/01:30am 12.7 WSW 28 33 1015.7 - - - - - - - - -
22/01:20am 12.6 SW 27 31 1016.2 - - - - - - - - -
22/01:10am 12.6 WSW 24 30 1016.2 - - - - - - - - -
22/01:00am 12.6 WSW 24 27 1016.3 - - - - - - - - -
22/12:50am 12.7 WSW 23 27 1016.5 - - - - - - - - -
22/12:40am 12.9 WSW 25 30 1016.6 - - - - - - - - -
22/12:30am 12.8 WSW 22 27 1016.7 - - - - - - - - -
22/12:20am 12.7 WSW 23 28 1016.8 - - - - - - - - -
22/12:10am 13.3 WSW 27 32 1016.9 - - - - - - - - -
22/12:00am 13.4 WSW 22 29 1016.9 - - - - - - - - -
 
Date/Time
EDT
Temp
°C
Wind Pressure Rain since
9am
mm
Weather Cloud Vis
km
Sea
Height
m
Swell
Dir  Spd
kts
Gust
kts
hPa Trend Height
m
Period
s
Dir
21/11:50pm 13.4 WSW 23 27 1016.9 - - - - - - - - -
21/11:40pm 13.4 WSW 23 27 1017.1 - - - - - - - - -
21/11:30pm 13.4 WSW 25 29 1017.0 - - - - - - - - -
21/11:20pm 13.4 WSW 23 28 1017.1 - - - - - - - - -
21/11:10pm 13.4 WSW 22 26 1017.1 - - - - - - - - -
21/11:00pm 13.8 WSW 22 26 1017.2 - - - - - - - - -
21/10:50pm 13.7 WSW 23 28 1017.2 - - - - - - - - -
21/10:40pm 13.6 WSW 25 29 1017.2 - - - - - - - - -
21/10:30pm 13.5 WSW 24 28 1017.3 - - - - - - - - -
21/10:20pm 13.6 WSW 25 30 1017.4 - - - - - - - - -
21/10:10pm 13.6 WSW 22 27 1017.6 - - - - - - - - -
21/10:00pm 13.6 WSW 23 27 1017.7 - - - - - - - - -
21/09:50pm 13.5 WSW 23 28 1017.7 - - - - - - - - -
21/09:40pm 13.4 WSW 24 27 1017.8 - - - - - - - - -
21/09:30pm 13.3 WSW 24 28 1017.9 - - - - - - - - -
21/09:20pm 13.3 WSW 24 29 1017.9 - - - - - - - - -
21/09:10pm 13.2 WSW 25 29 1017.9 - - - - - - - - -
21/09:00pm 13.2 WSW 25 29 1017.9 - - - - - - - - -
21/08:50pm 13.2 WSW 25 30 1017.9 - - - - - - - - -
21/08:40pm 13.2 WSW 27 30 1017.8 - - - - - - - - -
21/08:30pm 13.4 WSW 25 30 1017.9 - - - - - - - - -
21/08:20pm 13.6 WSW 26 30 1017.9 - - - - - - - - -
21/08:10pm 13.3 WSW 27 32 1018.0 - - - - - - - - -
21/08:00pm 13.3 WSW 27 32 1017.9 - - - - - - - - -
21/07:50pm 13.3 WSW 26 29 1018.0 - - - - - - - - -
21/07:40pm 13.4 WSW 26 30 1018.0 - - - - - - - - -
21/07:30pm 13.4 WSW 28 32 1018.0 - - - - - - - - -
21/07:20pm 13.4 WSW 26 31 1018.0 - - - - - - - - -
21/07:10pm 13.4 WSW 26 30 1018.1 - - - - - - - - -
21/07:00pm 13.5 WSW 27 33 1018.0 - - - - - - - - -
21/06:50pm 13.5 WSW 28 32 1017.9 - - - - - - - - -
21/06:40pm 13.6 WSW 28 33 1017.9 - - - - - - - - -
21/06:30pm 13.7 SW 28 32 1018.0 - - - - - - - - -
21/06:20pm 13.6 SW 29 34 1018.1 - - - - - - - - -
21/06:10pm 13.7 WSW 27 32 1018.2 - - - - - - - - -
21/06:00pm 13.7 SW 28 31 1018.2 - - - - - - - - -
21/05:50pm 13.7 SW 28 33 1018.2 - - - - - - - - -
21/05:40pm 13.6 WSW 27 31 1018.3 - - - - - - - - -
21/05:30pm 13.5 SW 28 32 1018.2 - - - - - - - - -
21/05:20pm 13.6 WSW 27 31 1018.4 - - - - - - - - -
21/05:10pm 13.7 WSW 26 29 1018.6 - - - - - - - - -
21/05:00pm 13.6 WSW 26 30 1018.6 - - - - - - - - -
21/04:50pm 13.6 SW 26 29 1018.6 - - - - - - - - -
21/04:40pm 13.5 WSW 26 31 1018.7 - - - - - - - - -
21/04:30pm 13.4 SW 26 30 1018.8 - - - - - - - - -
21/04:20pm 13.4 WSW 25 30 1018.9 - - - - - - - - -
21/04:10pm 13.4 WSW 25 29 1019.0 - - - - - - - - -
21/04:00pm 13.4 SW 26 30 1019.2 - - - - - - - - -
21/03:50pm 13.5 SW 25 29 1019.5 - - - - - - - - -
21/03:40pm 14.0 SW 26 30 1020.0 - - - - - - - - -
21/03:30pm 14.3 WSW 26 31 1019.4 - - - - - - - - -
21/03:20pm 14.0 WSW 24 28 1019.6 - - - - - - - - -
21/03:10pm 13.7 WSW 25 29 1019.7 - - - - - - - - -
21/03:00pm 14.0 WSW 22 26 1019.9 - - - - - - - - -
21/02:50pm 14.0 WSW 20 25 1020.1 - - - - - - - - -
21/02:40pm 13.7 WSW 20 24 1020.2 - - - - - - - - -
21/02:30pm 13.5 WSW 20 24 1020.4 - - - - - - - - -
21/02:20pm 13.4 WSW 26 35 1020.5 - - - - - - - - -
21/02:10pm 13.6 WSW 26 34 1020.3 - - - - - - - - -
21/02:00pm 13.4 WSW 22 27 1020.5 - - - - - - - - -
21/01:50pm 13.5 SW 21 26 1020.8 - - - - - - - - -
21/01:40pm 13.5 SW 23 31 1021.2 - - - - - - - - -
21/01:30pm 14.0 SW 26 30 1021.0 - - - - - - - - -
21/01:20pm 13.9 WSW 23 27 1020.7 - - - - - - - - -
21/01:10pm 13.8 WSW 22 26 1020.9 - - - - - - - - -
21/01:00pm 13.8 WSW 19 25 1021.1 - - - - - - - - -
21/12:50pm 13.8 WSW 26 31 1021.0 - - - - - - - - -
21/12:40pm 13.6 WSW 24 32 1021.2 - - - - - - - - -
21/12:30pm 14.0 WSW 23 29 1021.3 - - - - - - - - -
21/12:20pm 14.1 WSW 23 28 1021.4 - - - - - - - - -
21/12:10pm 14.0 WSW 20 28 1021.6 - - - - - - - - -
21/12:00pm 13.8 W 17 20 1021.9 - - - - - - - - -
21/11:50am 13.5 W 17 21 1022.1 - - - - - - - - -
21/11:40am 13.0 W 18 24 1022.3 - - - - - - - - -
21/11:30am 13.4 WSW 27 32 1022.0 - - - - - - - - -
21/11:20am 14.1 WSW 23 31 1022.1 - - - - - - - - -
21/11:10am 13.9 WSW 20 24 1022.2 - - - - - - - - -
21/11:00am 13.3 WSW 20 25 1022.4 - - - - - - - - -
21/10:50am 13.1 WSW 22 28 1022.6 - - - - - - - - -
21/10:40am 13.1 WSW 21 29 1022.5 - - - - - - - - -
21/10:30am 13.1 WSW 22 28 1022.6 - - - - - - - - -
21/10:20am 13.2 W 17 22 1022.9 - - - - - - - - -
21/10:10am 13.4 W 21 26 1022.8 - - - - - - - - -
21/10:00am 13.4 WSW 20 24 1022.8 - - - - - - - - -
21/09:50am 13.3 WSW 22 26 1022.8 - - - - - - - - -
21/09:40am 13.3 SW 25 28 1023.0 - - - - - - - - -
21/09:30am 13.2 WSW 23 27 1022.6 - - - - - - - - -
21/09:20am 12.9 WSW 22 28 1022.7 - - - - - - - - -
21/09:10am 13.0 SW 24 29 1022.9 - - - - - - - - -
21/09:00am 13.0 WSW 24 30 1022.6 - - - - - - - - -
21/08:50am 12.9 WSW 22 26 1022.7 - - - - - - - - -
21/08:40am 12.7 WSW 21 26 1023.0 - - - - - - - - -
21/08:30am 12.9 WSW 25 30 1023.0 - - - - - - - - -
21/08:20am 12.8 WSW 23 27 1022.9 - - - - - - - - -
21/08:10am 12.7 WSW 23 27 1022.8 - - - - - - - - -
21/08:00am 12.7 WSW 23 27 1022.7 - - - - - - - - -
21/07:50am 12.7 WSW 23 27 1022.7 - - - - - - - - -
21/07:40am 13.0 WSW 22 27 1022.8 - - - - - - - - -
21/07:30am 12.5 SW 21 24 1023.1 - - - - - - - - -
21/07:20am 12.4 SW 21 27 1023.1 - - - - - - - - -
21/07:10am 12.3 SW 22 27 1023.4 - - - - - - - - -
21/07:00am 12.3 SW 21 25 1023.2 - - - - - - - - -
21/06:50am 12.1 SW 22 25 1023.4 - - - - - - - - -
21/06:40am 12.2 SW 23 27 1023.5 - - - - - - - - -
21/06:30am 12.3 SW 27 31 1023.4 - - - - - - - - -
21/06:20am 12.3 SW 24 28 1023.2 - - - - - - - - -
21/06:10am 12.4 SW 25 30 1023.3 - - - - - - - - -
21/06:00am 12.4 SW 22 30 1023.4 - - - - - - - - -
21/05:50am 12.3 SW 23 27 1023.2 - - - - - - - - -
21/05:40am 12.2 SW 25 28 1023.2 - - - - - - - - -
21/05:30am 12.3 WSW 23 27 1023.1 - - - - - - - - -
21/05:20am 12.3 WSW 22 29 1023.0 - - - - - - - - -
21/05:10am 12.3 WSW 24 29 1022.8 - - - - - - - - -
21/05:00am 12.3 WSW 23 26 1022.9 - - - - - - - - -
21/04:50am 12.3 SW 23 29 1023.1 - - - - - - - - -
21/04:40am 12.3 WSW 22 27 1023.1 - - - - - - - - -
21/04:30am 12.2 SW 24 29 1023.0 - - - - - - - - -
21/04:20am 12.2 SW 25 29 1023.1 - - - - - - - - -
21/04:10am 12.2 SW 23 28 1023.3 - - - - - - - - -
21/04:00am 12.2 SW 23 29 1023.4 - - - - - - - - -
21/03:50am 12.2 SW 24 28 1023.6 - - - - - - - - -
21/03:40am 12.3 SW 23 27 1023.4 - - - - - - - - -
21/03:30am 12.2 SW 25 29 1023.6 - - - - - - - - -
21/03:20am 12.3 SW 24 27 1023.8 - - - - - - - - -
21/03:10am 12.3 SW 22 27 1023.8 - - - - - - - - -
21/03:00am 12.4 SW 23 27 1023.9 - - - - - - - - -
21/02:50am 12.4 WSW 23 28 1023.9 - - - - - - - - -
21/02:40am 12.4 WSW 24 29 1023.9 - - - - - - - - -
21/02:30am 12.4 WSW 21 28 1024.2 - - - - - - - - -
21/02:20am 12.4 SW 20 25 1024.4 - - - - - - - - -

Other Formats:

Comma delimited format used in spreadsheet applications
http://www.bom.gov.au/fwo/IDV60701/IDV60701.55039.axf

JavaScript Object Notation format (JSON) in row-major order
http://www.bom.gov.au/fwo/IDV60701/IDV60701.55039.json